Time;durP1;ratioP1;P1;durP2;ratioP2;P2;SDS_P1;SDS_P2;PMS_P1;PMS_P2;Temp;Humidity;BMP_temperature;BMP_pressure;BME280_temperature;BME280_humidity;BME280_pressure;Samples;Min_cycle;Max_cycle;Signal;HPM_P1;HPM_P2
2022/03/14 00:00:27;;;;;;;;;;;;;;;;;;5013506;28;20577;-44
2022/03/14 00:02:52;;;;;;;;;;;;;;;;;;5016167;28;19929;-44
2022/03/14 00:05:17;;;;;;;;;;;;;;;;;;5013846;28;20029;-42
2022/03/14 00:07:44;;;;;;;;;;;;;;;;;;5014218;28;20459;-42
2022/03/14 00:10:09;;;;;;;;;;;;;;;;;;5011955;28;20412;-44
2022/03/14 00:12:34;;;;;;;;;;;;;;;;;;5011796;28;19921;-45
2022/03/14 00:14:59;;;;;;;;;;;;;;;;;;5015750;28;20411;-42
2022/03/14 00:17:25;;;;;;;;;;;;;;;;;;5011757;28;19921;-45
2022/03/14 00:19:51;;;;;;;;;;;;;;;;;;5009965;28;19921;-43
2022/03/14 00:22:22;;;;;;;;;;;;;;;;;;5029204;28;19924;-44
2022/03/14 00:24:47;;;;;;;;;;;;;;;;;;5015310;28;19921;-42
2022/03/14 00:27:12;;;;;;;;;;;;;;;;;;5013618;28;20031;-44
2022/03/14 00:29:37;;;;;;;;;;;;;;;;;;5016068;28;20291;-45
2022/03/14 00:32:03;;;;;;;;;;;;;;;;;;5012144;28;19925;-45
2022/03/14 00:34:28;;;;;;;;;;;;;;;;;;5013395;28;19975;-44
2022/03/14 00:36:53;;;;;;;;;;;;;;;;;;5014947;28;20356;-46
2022/03/14 00:39:18;;;;;;;;;;;;;;;;;;5014679;28;19984;-44
2022/03/14 00:41:43;;;;;;;;;;;;;;;;;;5012151;28;20376;-47
2022/03/14 00:44:10;;;;;;;;;;;;;;;;;;5013534;28;20406;-45
2022/03/14 00:46:35;;;;;;;;;;;;;;;;;;5012363;28;20403;-42
2022/03/14 00:49:00;;;;;;;;;;;;;;;;;;5015666;28;19936;-42
2022/03/14 00:51:25;;;;;;;;;;;;;;;;;;5012776;28;19921;-45
2022/03/14 00:53:50;;;;;;;;;;;;;;;;;;5009132;28;19922;-43
2022/03/14 00:56:16;;;;;;;;;;;;;;;;;;5011821;28;20380;-43
2022/03/14 00:58:41;;;;;;;;;;;;;;;;;;5009638;28;19929;-43
2022/03/14 01:01:07;;;;;;;;;;;;;;;;;;5015786;28;19968;-43
2022/03/14 01:03:32;;;;;;;;;;;;;;;;;;5014491;28;19921;-45
2022/03/14 01:05:57;;;;;;;;;;;;;;;;;;5016962;28;19921;-42
2022/03/14 01:08:22;;;;;;;;;;;;;;;;;;5011267;28;19921;-45
2022/03/14 01:10:48;;;;;;;;;;;;;;;;;;5019033;28;20000;-44
2022/03/14 01:13:13;;;;;;;;;;;;;;;;;;5015702;28;20360;-43
2022/03/14 01:15:38;;;;;;;;;;;;;;;;;;5015112;28;20377;-42
2022/03/14 01:18:05;;;;;;;;;;;;;;;;;;5014078;28;19921;-41
2022/03/14 01:20:30;;;;;;;;;;;;;;;;;;5013911;28;19925;-45
2022/03/14 01:22:55;;;;;;;;;;;;;;;;;;5017154;28;19913;-45
2022/03/14 01:25:20;;;;;;;;;;;;;;;;;;5017162;28;19914;-42
2022/03/14 01:27:45;;;;;;;;;;;;;;;;;;5017873;28;20296;-45
2022/03/14 01:30:11;;;;;;;;;;;;;;;;;;5012262;28;19924;-43
2022/03/14 01:32:36;;;;;;;;;;;;;;;;;;5016010;28;20290;-43
2022/03/14 01:35:01;;;;;;;;;;;;;;;;;;5015104;28;19933;-43
2022/03/14 01:37:27;;;;;;;;;;;;;;;;;;5012594;28;20396;-43
2022/03/14 01:39:52;;;;;;;;;;;;;;;;;;5015138;28;19974;-43
2022/03/14 01:42:18;;;;;;;;;;;;;;;;;;5012468;28;20444;-43
2022/03/14 01:44:43;;;;;;;;;;;;;;;;;;5015024;28;19925;-42
2022/03/14 01:47:08;;;;;;;;;;;;;;;;;;5016067;28;19924;-45
2022/03/14 01:49:33;;;;;;;;;;;;;;;;;;5016064;28;19921;-43
2022/03/14 01:51:59;;;;;;;;;;;;;;;;;;5012424;28;19933;-46
2022/03/14 01:54:24;;;;;;;;;;;;;;;;;;5012543;28;19922;-43
2022/03/14 01:56:49;;;;;;;;;;;;;;;;;;5016938;28;19925;-43
2022/03/14 01:59:14;;;;;;;;;;;;;;;;;;5014735;28;19972;-45
2022/03/14 02:01:39;;;;;;;;;;;;;;;;;;5014137;28;20457;-46
2022/03/14 02:04:08;;;;;;;;;;;;;;;;;;5028802;28;19921;-42
2022/03/14 02:06:35;;;;;;;;;;;;;;;;;;5014304;28;19917;-45
2022/03/14 02:09:00;;;;;;;;;;;;;;;;;;5015857;28;20365;-45
2022/03/14 02:11:26;;;;;;;;;;;;;;;;;;5016354;28;19927;-45
2022/03/14 02:13:51;;;;;;;;;;;;;;;;;;5012347;28;20286;-45
2022/03/14 02:16:16;;;;;;;;;;;;;;;;;;5014553;28;20329;-49
2022/03/14 02:18:41;;;;;;;;;;;;;;;;;;5015787;28;19921;-42
2022/03/14 02:21:06;;;;;;;;;;;;;;;;;;5015038;28;20337;-45
2022/03/14 02:23:32;;;;;;;;;;;;;;;;;;5012317;28;20020;-45
2022/03/14 02:25:57;;;;;;;;;;;;;;;;;;5012409;28;19920;-44
2022/03/14 02:28:26;;;;;;;;;;;;;;;;;;5011188;28;19965;-47
2022/03/14 02:30:51;;;;;;;;;;;;;;;;;;5015783;28;19917;-42
2022/03/14 02:33:16;;;;;;;;;;;;;;;;;;5012240;28;19987;-42
2022/03/14 02:35:41;;;;;;;;;;;;;;;;;;5016413;28;19988;-43
2022/03/14 02:38:12;;;;;;;;;;;;;;;;;;5012571;28;19921;-41
2022/03/14 02:40:39;;;;;;;;;;;;;;;;;;5014764;28;19917;-42
2022/03/14 02:43:04;;;;;;;;;;;;;;;;;;5010567;28;19922;-46
2022/03/14 02:45:30;;;;;;;;;;;;;;;;;;5013531;28;19945;-42
2022/03/14 02:47:55;;;;;;;;;;;;;;;;;;5010884;28;19924;-48
2022/03/14 02:50:20;;;;;;;;;;;;;;;;;;5013225;28;19921;-45
2022/03/14 02:52:46;;;;;;;;;;;;;;;;;;5011998;28;20418;-43
2022/03/14 02:55:11;;;;;;;;;;;;;;;;;;5008651;28;20014;-46
2022/03/14 02:57:36;;;;;;;;;;;;;;;;;;5018890;28;19921;-42
2022/03/14 03:00:03;;;;;;;;;;;;;;;;;;5019195;28;19921;-42
2022/03/14 03:02:29;;;;;;;;;;;;;;;;;;5018711;28;19924;-43
2022/03/14 03:04:55;;;;;;;;;;;;;;;;;;5018994;28;20007;-41
2022/03/14 03:07:20;;;;;;;;;;;;;;;;;;5018262;28;19922;-42
2022/03/14 03:09:45;;;;;;;;;;;;;;;;;;5015742;28;20393;-46
2022/03/14 03:12:14;;;;;;;;;;;;;;;;;;5018430;28;19957;-47
2022/03/14 03:14:39;;;;;;;;;;;;;;;;;;5016476;28;20017;-44
2022/03/14 03:17:04;;;;;;;;;;;;;;;;;;5018277;28;20556;-46
2022/03/14 03:19:30;;;;;;;;;;;;;;;;;;5018357;28;19967;-44
2022/03/14 03:21:55;;;;;;;;;;;;;;;;;;5015379;28;19921;-42
2022/03/14 03:24:20;;;;;;;;;;;;;;;;;;5020182;28;19925;-43
2022/03/14 03:26:45;;;;;;;;;;;;;;;;;;5018011;28;19913;-42
2022/03/14 03:29:10;;;;;;;;;;;;;;;;;;5017517;28;20352;-45
2022/03/14 03:31:36;;;;;;;;;;;;;;;;;;5018969;28;19917;-43
2022/03/14 03:34:01;;;;;;;;;;;;;;;;;;5019201;28;19932;-44
2022/03/14 03:36:26;;;;;;;;;;;;;;;;;;5014156;28;20016;-43
2022/03/14 03:38:51;;;;;;;;;;;;;;;;;;5019105;28;19927;-44
2022/03/14 03:41:17;;;;;;;;;;;;;;;;;;5017256;28;20423;-44
2022/03/14 03:43:42;;;;;;;;;;;;;;;;;;5014988;28;19917;-44
2022/03/14 03:46:07;;;;;;;;;;;;;;;;;;5015657;28;19921;-44
2022/03/14 03:48:33;;;;;;;;;;;;;;;;;;5019589;28;19925;-43
2022/03/14 03:50:58;;;;;;;;;;;;;;;;;;5017213;28;19921;-41
2022/03/14 03:53:23;;;;;;;;;;;;;;;;;;5013884;28;20475;-42
2022/03/14 03:55:48;;;;;;;;;;;;;;;;;;5020675;28;19920;-42
2022/03/14 03:58:14;;;;;;;;;;;;;;;;;;5016443;28;19918;-47
2022/03/14 04:00:39;;;;;;;;;;;;;;;;;;5018168;28;19917;-44
2022/03/14 04:03:04;;;;;;;;;;;;;;;;;;5015426;28;19921;-42
2022/03/14 04:05:30;;;;;;;;;;;;;;;;;;5017697;28;19922;-44
2022/03/14 04:07:57;;;;;;;;;;;;;;;;;;5016271;28;20340;-44
2022/03/14 04:10:23;;;;;;;;;;;;;;;;;;5014382;28;19921;-43
2022/03/14 04:12:49;;;;;;;;;;;;;;;;;;5016431;28;19976;-45
2022/03/14 04:15:15;;;;;;;;;;;;;;;;;;5014347;28;19921;-41
2022/03/14 04:17:42;;;;;;;;;;;;;;;;;;5015896;28;19917;-41
2022/03/14 04:20:07;;;;;;;;;;;;;;;;;;5014533;28;19928;-42
2022/03/14 04:22:32;;;;;;;;;;;;;;;;;;5017599;28;20029;-43
2022/03/14 04:24:58;;;;;;;;;;;;;;;;;;5023117;28;19924;-45
2022/03/14 04:27:24;;;;;;;;;;;;;;;;;;5015638;28;19926;-46
2022/03/14 04:29:49;;;;;;;;;;;;;;;;;;5013206;28;19917;-45
2022/03/14 04:32:14;;;;;;;;;;;;;;;;;;5017297;28;20277;-48
2022/03/14 04:34:39;;;;;;;;;;;;;;;;;;5016967;28;19917;-45
2022/03/14 04:37:05;;;;;;;;;;;;;;;;;;5013777;28;19929;-46
2022/03/14 04:39:31;;;;;;;;;;;;;;;;;;5012419;28;19917;-46
2022/03/14 04:41:56;;;;;;;;;;;;;;;;;;5017370;28;20396;-41
2022/03/14 04:44:22;;;;;;;;;;;;;;;;;;5021068;28;19921;-41
2022/03/14 04:46:47;;;;;;;;;;;;;;;;;;5019150;28;19921;-43
2022/03/14 04:49:13;;;;;;;;;;;;;;;;;;5013267;28;20333;-41
2022/03/14 04:51:38;;;;;;;;;;;;;;;;;;5017392;28;19933;-43
2022/03/14 04:54:03;;;;;;;;;;;;;;;;;;5015641;28;20457;-43
2022/03/14 04:56:28;;;;;;;;;;;;;;;;;;5016045;28;19969;-43
2022/03/14 04:58:54;;;;;;;;;;;;;;;;;;5011674;28;19928;-43
2022/03/14 05:01:25;;;;;;;;;;;;;;;;;;5015893;28;20512;-40
2022/03/14 05:03:52;;;;;;;;;;;;;;;;;;5015694;28;20395;-41
2022/03/14 05:06:17;;;;;;;;;;;;;;;;;;5015868;28;19968;-41
2022/03/14 05:08:42;;;;;;;;;;;;;;;;;;5014870;28;19975;-44
2022/03/14 05:11:09;;;;;;;;;;;;;;;;;;5016538;28;19987;-44
2022/03/14 05:13:34;;;;;;;;;;;;;;;;;;5015887;28;19951;-41
2022/03/14 05:15:59;;;;;;;;;;;;;;;;;;5016849;28;19921;-43
2022/03/14 05:18:25;;;;;;;;;;;;;;;;;;5017027;28;20508;-42
2022/03/14 05:20:51;;;;;;;;;;;;;;;;;;5014455;28;19943;-43
2022/03/14 05:23:16;;;;;;;;;;;;;;;;;;5015542;28;19917;-43
2022/03/14 05:25:41;;;;;;;;;;;;;;;;;;5017322;28;19917;-43
2022/03/14 05:28:06;;;;;;;;;;;;;;;;;;5013601;28;20053;-42
2022/03/14 05:30:31;;;;;;;;;;;;;;;;;;5015765;28;19921;-42
2022/03/14 05:32:56;;;;;;;;;;;;;;;;;;5013681;28;20416;-43
2022/03/14 05:35:21;;;;;;;;;;;;;;;;;;5012676;28;20058;-42
2022/03/14 05:37:47;;;;;;;;;;;;;;;;;;5018335;28;19932;-47
2022/03/14 05:40:12;;;;;;;;;;;;;;;;;;5016263;28;19921;-45
2022/03/14 05:42:37;;;;;;;;;;;;;;;;;;5013538;28;19932;-43
2022/03/14 05:45:02;;;;;;;;;;;;;;;;;;5014662;28;20010;-45
2022/03/14 05:47:28;;;;;;;;;;;;;;;;;;5012734;28;19947;-45
2022/03/14 05:49:53;;;;;;;;;;;;;;;;;;5019137;28;19967;-46
2022/03/14 05:52:21;;;;;;;;;;;;;;;;;;5013013;28;19928;-45
2022/03/14 05:54:46;;;;;;;;;;;;;;;;;;5014118;28;19917;-45
2022/03/14 05:57:11;;;;;;;;;;;;;;;;;;5013946;28;20008;-43
2022/03/14 05:59:36;;;;;;;;;;;;;;;;;;5018977;28;19925;-44
2022/03/14 06:02:01;;;;;;;;;;;;;;;;;;5016448;28;19921;-47
2022/03/14 06:04:27;;;;;;;;;;;;;;;;;;5026590;28;19972;-41
2022/03/14 06:06:53;;;;;;;;;;;;;;;;;;5013208;28;19926;-45
2022/03/14 06:09:18;;;;;;;;;;;;;;;;;;5016322;28;20448;-43
2022/03/14 06:11:43;;;;;;;;;;;;;;;;;;5012840;28;20025;-44
2022/03/14 06:14:11;;;;;;;;;;;;;;;;;;5015150;28;20562;-45
2022/03/14 06:16:38;;;;;;;;;;;;;;;;;;5011239;28;21339;-46
2022/03/14 06:19:03;;;;;;;;;;;;;;;;;;5013826;28;20035;-43
2022/03/14 06:21:29;;;;;;;;;;;;;;;;;;5021449;28;19916;-44
2022/03/14 06:23:54;;;;;;;;;;;;;;;;;;5011025;28;20547;-43
2022/03/14 06:26:19;;;;;;;;;;;;;;;;;;5018379;28;20119;-46
2022/03/14 06:28:45;;;;;;;;;;;;;;;;;;5015615;28;20016;-46
2022/03/14 06:31:10;;;;;;;;;;;;;;;;;;5011898;28;19922;-49
2022/03/14 06:33:35;;;;;;;;;;;;;;;;;;5013302;28;19917;-46
2022/03/14 06:36:00;;;;;;;;;;;;;;;;;;5013342;28;19991;-42
2022/03/14 06:38:26;;;;;;;;;;;;;;;;;;5010221;28;20039;-46
2022/03/14 06:40:51;;;;;;;;;;;;;;;;;;5010649;28;19922;-46
2022/03/14 06:43:17;;;;;;;;;;;;;;;;;;5013365;28;20304;-42
2022/03/14 06:45:43;;;;;;;;;;;;;;;;;;5013518;28;20328;-48
2022/03/14 06:48:08;;;;;;;;;;;;;;;;;;5014074;28;19921;-45
2022/03/14 06:50:35;;;;;;;;;;;;;;;;;;5014707;28;19921;-41
2022/03/14 06:53:00;;;;;;;;;;;;;;;;;;5015253;28;20467;-42
2022/03/14 06:55:26;;;;;;;;;;;;;;;;;;5010276;28;19918;-43
2022/03/14 06:57:52;;;;;;;;;;;;;;;;;;5013426;28;19921;-43
2022/03/14 07:00:17;;;;;;;;;;;;;;;;;;5011769;28;19917;-43
2022/03/14 07:02:42;;;;;;;;;;;;;;;;;;5012265;28;20011;-43
2022/03/14 07:05:07;;;;;;;;;;;;;;;;;;5013706;28;19941;-44
2022/03/14 07:07:32;;;;;;;;;;;;;;;;;;5015280;28;20393;-44
2022/03/14 07:09:57;;;;;;;;;;;;;;;;;;5014019;28;19964;-44
2022/03/14 07:12:22;;;;;;;;;;;;;;;;;;5014662;28;19949;-43
2022/03/14 07:14:48;;;;;;;;;;;;;;;;;;5015681;28;19925;-44
2022/03/14 07:17:13;;;;;;;;;;;;;;;;;;5013903;28;19944;-45
2022/03/14 07:19:42;;;;;;;;;;;;;;;;;;5009412;28;19921;-43
2022/03/14 07:22:07;;;;;;;;;;;;;;;;;;5014417;28;19968;-44
2022/03/14 07:24:33;;;;;;;;;;;;;;;;;;5017528;28;20299;-43
2022/03/14 07:26:58;;;;;;;;;;;;;;;;;;5011997;28;20558;-44
2022/03/14 07:29:23;;;;;;;;;;;;;;;;;;5012535;28;19921;-42
2022/03/14 07:31:48;;;;;;;;;;;;;;;;;;5011956;28;20006;-43
2022/03/14 07:34:14;;;;;;;;;;;;;;;;;;5013154;28;20246;-43
2022/03/14 07:36:40;;;;;;;;;;;;;;;;;;5009945;28;20610;-46
2022/03/14 07:39:06;;;;;;;;;;;;;;;;;;5011489;28;20048;-56
2022/03/14 07:41:31;;;;;;;;;;;;;;;;;;5015738;28;20372;-61
2022/03/14 07:44:00;;;;;;;;;;;;;;;;;;5016306;28;19920;-60
2022/03/14 07:46:25;;;;;;;;;;;;;;;;;;5019393;28;20832;-61
2022/03/14 07:48:50;;;;;;;;;;;;;;;;;;5015706;28;19913;-62
2022/03/14 07:51:15;;;;;;;;;;;;;;;;;;5014533;28;19932;-61
2022/03/14 07:53:40;;;;;;;;;;;;;;;;;;5014770;28;20499;-61
2022/03/14 07:56:06;;;;;;;;;;;;;;;;;;5018318;28;19925;-60
2022/03/14 07:58:31;;;;;;;;;;;;;;;;;;5014587;28;19921;-60
2022/03/14 08:00:56;;;;;;;;;;;;;;;;;;5015480;28;20533;-60
2022/03/14 08:03:22;;;;;;;;;;;;;;;;;;5014124;28;19979;-57
2022/03/14 08:05:53;;;;;;;;;;;;;;;;;;5015383;28;20420;-62
2022/03/14 08:08:18;;;;;;;;;;;;;;;;;;5017426;28;20402;-59
2022/03/14 08:10:44;;;;;;;;;;;;;;;;;;5016317;28;19925;-59
2022/03/14 08:13:09;;;;;;;;;;;;;;;;;;5019337;28;20324;-61
2022/03/14 08:15:36;;;;;;;;;;;;;;;;;;5018078;28;19917;-62
2022/03/14 08:18:01;;;;;;;;;;;;;;;;;;5018258;28;20534;-62
2022/03/14 08:20:26;;;;;;;;;;;;;;;;;;5016014;28;20008;-61
2022/03/14 08:22:52;;;;;;;;;;;;;;;;;;5016953;28;19929;-61
2022/03/14 08:25:18;;;;;;;;;;;;;;;;;;5016078;28;19940;-60
2022/03/14 08:27:43;;;;;;;;;;;;;;;;;;5016804;28;20337;-61
2022/03/14 08:30:08;;;;;;;;;;;;;;;;;;5011981;28;19979;-60
2022/03/14 08:32:34;;;;;;;;;;;;;;;;;;5010976;28;19976;-61
2022/03/14 08:35:07;;;;;;;;;;;;;;;;;;5012981;28;19921;-61
2022/03/14 08:37:32;;;;;;;;;;;;;;;;;;5012454;28;19929;-61
2022/03/14 08:39:57;;;;;;;;;;;;;;;;;;5013232;28;19921;-61
2022/03/14 08:42:22;;;;;;;;;;;;;;;;;;5017448;28;19921;-61
2022/03/14 08:44:48;;;;;;;;;;;;;;;;;;5017015;28;19921;-61
2022/03/14 08:47:13;;;;;;;;;;;;;;;;;;5013788;28;20008;-61
2022/03/14 08:49:38;;;;;;;;;;;;;;;;;;5014071;28;20364;-61
2022/03/14 08:52:03;;;;;;;;;;;;;;;;;;5014585;28;19936;-61
2022/03/14 08:54:28;;;;;;;;;;;;;;;;;;5010802;28;19939;-61
2022/03/14 08:56:54;;;;;;;;;;;;;;;;;;5013001;28;19971;-61
2022/03/14 08:59:19;;;;;;;;;;;;;;;;;;5014298;28;20025;-62
2022/03/14 09:01:44;;;;;;;;;;;;;;;;;;5015222;28;19921;-61
2022/03/14 09:04:09;;;;;;;;;;;;;;;;;;5013372;28;20377;-60
2022/03/14 09:06:36;;;;;;;;;;;;;;;;;;5015199;28;20012;-61
2022/03/14 09:09:01;;;;;;;;;;;;;;;;;;5011969;28;19921;-61
2022/03/14 09:11:27;;;;;;;;;;;;;;;;;;5015107;28;19928;-62
2022/03/14 09:13:52;;;;;;;;;;;;;;;;;;5010570;28;20374;-61
2022/03/14 09:16:17;;;;;;;;;;;;;;;;;;5014402;28;19932;-60
2022/03/14 09:18:43;;;;;;;;;;;;;;;;;;5012122;28;19976;-61
2022/03/14 09:21:08;;;;;;;;;;;;;;;;;;5016400;28;20040;-61
2022/03/14 09:23:33;;;;;;;;;;;;;;;;;;5011477;28;20378;-62
2022/03/14 09:25:59;;;;;;;;;;;;;;;;;;5012803;28;19972;-61
2022/03/14 09:28:25;;;;;;;;;;;;;;;;;;5006021;28;20021;-62
2022/03/14 09:30:50;;;;;;;;;;;;;;;;;;5012512;28;19990;-62
2022/03/14 09:33:16;;;;;;;;;;;;;;;;;;5011937;28;20361;-61
2022/03/14 09:35:41;;;;;;;;;;;;;;;;;;5013910;28;19932;-61
2022/03/14 09:38:06;;;;;;;;;;;;;;;;;;5013805;28;20604;-61
2022/03/14 09:40:31;;;;;;;;;;;;;;;;;;5012662;28;19928;-61
2022/03/14 09:42:59;;;;;;;;;;;;;;;;;;5014645;28;20543;-61
2022/03/14 09:45:24;;;;;;;;;;;;;;;;;;5011875;28;20043;-61
2022/03/14 09:47:49;;;;;;;;;;;;;;;;;;5012786;28;20436;-61
2022/03/14 09:50:14;;;;;;;;;;;;;;;;;;5010871;28;20423;-61
2022/03/14 09:52:39;;;;;;;;;;;;;;;;;;5016123;28;19921;-61
2022/03/14 09:55:04;;;;;;;;;;;;;;;;;;5013182;28;19921;-61
2022/03/14 09:57:30;;;;;;;;;;;;;;;;;;5012027;28;20174;-61
2022/03/14 09:59:55;;;;;;;;;;;;;;;;;;5009984;28;19922;-60
2022/03/14 10:02:20;;;;;;;;;;;;;;;;;;5013560;28;19917;-61
2022/03/14 10:04:45;;;;;;;;;;;;;;;;;;5010787;28;19924;-60
2022/03/14 10:07:10;;;;;;;;;;;;;;;;;;5009369;28;20333;-60
2022/03/14 10:09:36;;;;;;;;;;;;;;;;;;5011967;28;19921;-61
2022/03/14 10:12:02;;;;;;;;;;;;;;;;;;5011247;28;19922;-60
2022/03/14 10:14:27;;;;;;;;;;;;;;;;;;5013915;28;19921;-60
2022/03/14 10:16:55;;;;;;;;;;;;;;;;;;5010547;28;19926;-61
2022/03/14 10:19:22;;;;;;;;;;;;;;;;;;5016215;28;20111;-60
2022/03/14 10:21:51;;;;;;;;;;;;;;;;;;5012497;28;19921;-61
2022/03/14 10:24:16;;;;;;;;;;;;;;;;;;5013928;28;19925;-59
2022/03/14 10:26:41;;;;;;;;;;;;;;;;;;5012758;28;19921;-61
2022/03/14 10:29:08;;;;;;;;;;;;;;;;;;5015280;28;19923;-60
2022/03/14 10:31:34;;;;;;;;;;;;;;;;;;5013376;28;19922;-62
2022/03/14 10:34:04;;;;;;;;;;;;;;;;;;5009879;28;19920;-61
2022/03/14 10:36:29;;;;;;;;;;;;;;;;;;5012438;28;20100;-63
2022/03/14 10:38:54;;;;;;;;;;;;;;;;;;5009322;28;20404;-61
2022/03/14 10:41:19;;;;;;;;;;;;;;;;;;5012601;28;19920;-62
2022/03/14 10:43:46;;;;;;;;;;;;;;;;;;5014281;28;19953;-66
2022/03/14 10:46:11;;;;;;;;;;;;;;;;;;5016543;28;19936;-71
2022/03/14 10:48:36;;;;;;;;;;;;;;;;;;5014243;28;19921;-61
2022/03/14 10:51:01;;;;;;;;;;;;;;;;;;5014338;28;19923;-61
2022/03/14 10:53:26;;;;;;;;;;;;;;;;;;5012506;28;20368;-61
2022/03/14 10:55:51;;;;;;;;;;;;;;;;;;5009843;28;19928;-61
2022/03/14 10:58:17;;;;;;;;;;;;;;;;;;5012593;28;20026;-61
2022/03/14 11:00:42;;;;;;;;;;;;;;;;;;5017105;28;20424;-61
2022/03/14 11:03:07;;;;;;;;;;;;;;;;;;5017589;28;20336;-61
2022/03/14 11:05:32;;;;;;;;;;;;;;;;;;5015805;28;19924;-59
2022/03/14 11:07:57;;;;;;;;;;;;;;;;;;5013811;28;19979;-62
2022/03/14 11:10:22;;;;;;;;;;;;;;;;;;5014114;28;20308;-62
2022/03/14 11:12:48;;;;;;;;;;;;;;;;;;5012076;28;20388;-62
2022/03/14 11:15:14;;;;;;;;;;;;;;;;;;5011272;28;20401;-62
2022/03/14 11:17:39;;;;;;;;;;;;;;;;;;5018662;28;20061;-62
2022/03/14 11:20:04;;;;;;;;;;;;;;;;;;5017148;28;20486;-62
2022/03/14 11:22:29;;;;;;;;;;;;;;;;;;5019915;28;20054;-62
2022/03/14 11:24:55;;;;;;;;;;;;;;;;;;5019632;28;19921;-62
2022/03/14 11:27:20;;;;;;;;;;;;;;;;;;5014460;28;20388;-62
2022/03/14 11:29:45;;;;;;;;;;;;;;;;;;5020141;28;19928;-62
2022/03/14 11:32:10;;;;;;;;;;;;;;;;;;5017140;28;20424;-62
2022/03/14 11:34:35;;;;;;;;;;;;;;;;;;5016722;28;19928;-62
2022/03/14 11:37:01;;;;;;;;;;;;;;;;;;5018047;28;20003;-63
2022/03/14 11:39:26;;;;;;;;;;;;;;;;;;5016915;28;19929;-62
2022/03/14 11:41:51;;;;;;;;;;;;;;;;;;5017225;28;20020;-62
2022/03/14 11:44:16;;;;;;;;;;;;;;;;;;5018034;28;19921;-62
2022/03/14 11:46:42;;;;;;;;;;;;;;;;;;5016912;28;20031;-62
2022/03/14 11:49:07;;;;;;;;;;;;;;;;;;5016372;28;20329;-62
2022/03/14 11:51:32;;;;;;;;;;;;;;;;;;5016632;28;19921;-62
2022/03/14 11:53:57;;;;;;;;;;;;;;;;;;5018832;28;19929;-62
2022/03/14 11:56:22;;;;;;;;;;;;;;;;;;5018697;28;20351;-62
2022/03/14 11:58:47;;;;;;;;;;;;;;;;;;5015216;28;19921;-63
2022/03/14 12:01:15;;;;;;;;;;;;;;;;;;5016041;28;19967;-62
2022/03/14 12:03:40;;;;;;;;;;;;;;;;;;5014278;28;19971;-62
2022/03/14 12:06:06;;;;;;;;;;;;;;;;;;5018034;28;20008;-63
2022/03/14 12:08:32;;;;;;;;;;;;;;;;;;5019041;28;20320;-62
2022/03/14 12:10:57;;;;;;;;;;;;;;;;;;5016226;28;19921;-59
2022/03/14 12:13:22;;;;;;;;;;;;;;;;;;5015401;28;19925;-62
2022/03/14 12:15:48;;;;;;;;;;;;;;;;;;5019909;28;20455;-63
2022/03/14 12:18:13;;;;;;;;;;;;;;;;;;5017571;28;19924;-61
2022/03/14 12:20:38;;;;;;;;;;;;;;;;;;5018255;28;19921;-62
2022/03/14 12:23:04;;;;;;;;;;;;;;;;;;5020973;28;19979;-63
2022/03/14 12:25:29;;;;;;;;;;;;;;;;;;5016521;28;19917;-63
2022/03/14 12:27:54;;;;;;;;;;;;;;;;;;5016589;28;20019;-63
2022/03/14 12:30:22;;;;;;;;;;;;;;;;;;5017692;28;19960;-64
2022/03/14 12:32:52;;;;;;;;;;;;;;;;;;5014235;28;19917;-64
2022/03/14 12:35:19;;;;;;;;;;;;;;;;;;5014475;28;19921;-64
2022/03/14 12:37:44;;;;;;;;;;;;;;;;;;5018644;28;19994;-64
2022/03/14 12:40:09;;;;;;;;;;;;;;;;;;5019098;28;19921;-63
2022/03/14 12:42:35;;;;;;;;;;;;;;;;;;5017646;28;19936;-63
2022/03/14 12:45:00;;;;;;;;;;;;;;;;;;5019002;28;20027;-64
2022/03/14 12:47:25;;;;;;;;;;;;;;;;;;5017803;28;19924;-64
2022/03/14 12:49:50;;;;;;;;;;;;;;;;;;5018405;28;20415;-65
2022/03/14 12:52:15;;;;;;;;;;;;;;;;;;5018727;28;19960;-64
2022/03/14 12:54:40;;;;;;;;;;;;;;;;;;5018902;28;20011;-63
2022/03/14 12:57:06;;;;;;;;;;;;;;;;;;5016005;28;19921;-64
2022/03/14 12:59:32;;;;;;;;;;;;;;;;;;5015457;28;19964;-64
2022/03/14 13:01:57;;;;;;;;;;;;;;;;;;5015574;28;20401;-64
2022/03/14 13:04:23;;;;;;;;;;;;;;;;;;5017131;28;20424;-64
2022/03/14 13:06:51;;;;;;;;;;;;;;;;;;5016882;28;19928;-64
2022/03/14 13:09:16;;;;;;;;;;;;;;;;;;5015616;28;19917;-64
2022/03/14 13:11:42;;;;;;;;;;;;;;;;;;5017761;28;19986;-64
2022/03/14 13:14:07;;;;;;;;;;;;;;;;;;5016477;28;19924;-64
2022/03/14 13:16:34;;;;;;;;;;;;;;;;;;5015545;28;19925;-63
2022/03/14 13:18:59;;;;;;;;;;;;;;;;;;5019770;28;19932;-63
2022/03/14 13:21:25;;;;;;;;;;;;;;;;;;5016093;28;19921;-64
2022/03/14 13:23:50;;;;;;;;;;;;;;;;;;5013931;28;19939;-63
2022/03/14 13:26:15;;;;;;;;;;;;;;;;;;5018478;28;20475;-63
2022/03/14 13:28:40;;;;;;;;;;;;;;;;;;5019636;28;20300;-63
2022/03/14 13:31:08;;;;;;;;;;;;;;;;;;5014731;28;19963;-63
2022/03/14 13:33:33;;;;;;;;;;;;;;;;;;5016298;28;19956;-64
2022/03/14 13:35:58;;;;;;;;;;;;;;;;;;5017334;28;20060;-64
2022/03/14 13:38:23;;;;;;;;;;;;;;;;;;5016726;28;20060;-66
2022/03/14 13:40:49;;;;;;;;;;;;;;;;;;5014650;28;20024;-61
2022/03/14 13:43:14;;;;;;;;;;;;;;;;;;5015539;28;19932;-62
2022/03/14 13:45:39;;;;;;;;;;;;;;;;;;5015769;28;19917;-63
2022/03/14 13:48:04;;;;;;;;;;;;;;;;;;5015235;28;19943;-66
2022/03/14 13:50:30;;;;;;;;;;;;;;;;;;5010523;28;20316;-65
2022/03/14 13:52:55;;;;;;;;;;;;;;;;;;5014830;28;19933;-65
2022/03/14 13:55:21;;;;;;;;;;;;;;;;;;5018712;28;20441;-65
2022/03/14 13:57:46;;;;;;;;;;;;;;;;;;5014684;28;19921;-62
2022/03/14 14:00:11;;;;;;;;;;;;;;;;;;5015169;28;20624;-66
2022/03/14 14:02:36;;;;;;;;;;;;;;;;;;5015070;28;19925;-65
2022/03/14 14:05:01;;;;;;;;;;;;;;;;;;5014728;28;19921;-67
2022/03/14 14:07:26;;;;;;;;;;;;;;;;;;5016181;28;19925;-65
2022/03/14 14:09:52;;;;;;;;;;;;;;;;;;5018321;28;20412;-64
2022/03/14 14:12:17;;;;;;;;;;;;;;;;;;5014674;28;19979;-64
2022/03/14 14:14:42;;;;;;;;;;;;;;;;;;5017297;28;19933;-66
2022/03/14 14:17:07;;;;;;;;;;;;;;;;;;5015469;28;19983;-61
2022/03/14 14:19:32;;;;;;;;;;;;;;;;;;5015277;28;19917;-63
2022/03/14 14:21:58;;;;;;;;;;;;;;;;;;5014075;28;19925;-63
2022/03/14 14:24:23;;;;;;;;;;;;;;;;;;5015881;28;20024;-61
2022/03/14 14:26:49;;;;;;;;;;;;;;;;;;5015018;28;20582;-61
2022/03/14 14:29:14;;;;;;;;;;;;;;;;;;5013958;28;20006;-61
2022/03/14 14:31:39;;;;;;;;;;;;;;;;;;5011434;28;19928;-61
2022/03/14 14:34:04;;;;;;;;;;;;;;;;;;5014075;28;19954;-61
2022/03/14 14:36:29;;;;;;;;;;;;;;;;;;5013492;28;19931;-62
2022/03/14 14:38:55;;;;;;;;;;;;;;;;;;5010586;28;20377;-62
2022/03/14 14:41:20;;;;;;;;;;;;;;;;;;5012134;28;20353;-67
2022/03/14 14:43:46;;;;;;;;;;;;;;;;;;5011936;28;19922;-67
2022/03/14 14:46:11;;;;;;;;;;;;;;;;;;5010903;28;19921;-67
2022/03/14 14:48:36;;;;;;;;;;;;;;;;;;5015524;28;20432;-67
2022/03/14 14:51:04;;;;;;;;;;;;;;;;;;5011954;28;19992;-67
2022/03/14 14:53:29;;;;;;;;;;;;;;;;;;5015375;28;19921;-66
2022/03/14 14:55:55;;;;;;;;;;;;;;;;;;5015616;28;19921;-67
2022/03/14 14:58:22;;;;;;;;;;;;;;;;;;5016672;28;20373;-66
2022/03/14 15:00:47;;;;;;;;;;;;;;;;;;5013225;28;19921;-66
2022/03/14 15:03:13;;;;;;;;;;;;;;;;;;5017661;28;20044;-65
2022/03/14 15:05:39;;;;;;;;;;;;;;;;;;5017248;28;20624;-65
2022/03/14 15:08:04;;;;;;;;;;;;;;;;;;5017164;28;19922;-66
2022/03/14 15:10:29;;;;;;;;;;;;;;;;;;5021773;28;20357;-66
2022/03/14 15:12:54;;;;;;;;;;;;;;;;;;5018384;28;19929;-66
2022/03/14 15:15:20;;;;;;;;;;;;;;;;;;5012521;28;20358;-66
2022/03/14 15:17:45;;;;;;;;;;;;;;;;;;5018159;28;19926;-66
2022/03/14 15:20:11;;;;;;;;;;;;;;;;;;5018339;28;19951;-65
2022/03/14 15:22:36;;;;;;;;;;;;;;;;;;5016154;28;19995;-65
2022/03/14 15:25:02;;;;;;;;;;;;;;;;;;5016118;28;19938;-65
2022/03/14 15:27:27;;;;;;;;;;;;;;;;;;5017621;28;20257;-67
2022/03/14 15:29:52;;;;;;;;;;;;;;;;;;5021114;28;20023;-68
2022/03/14 15:32:19;;;;;;;;;;;;;;;;;;5018090;28;20020;-66
2022/03/14 15:34:44;;;;;;;;;;;;;;;;;;5019158;28;19918;-66
2022/03/14 15:37:10;;;;;;;;;;;;;;;;;;5021894;28;19982;-66
2022/03/14 15:39:35;;;;;;;;;;;;;;;;;;5018291;28;19928;-66
2022/03/14 15:42:00;;;;;;;;;;;;;;;;;;5019947;28;20892;-67
2022/03/14 15:44:25;;;;;;;;;;;;;;;;;;5016903;28;19928;-67
2022/03/14 15:46:51;;;;;;;;;;;;;;;;;;5020155;28;20372;-66
2022/03/14 15:49:16;;;;;;;;;;;;;;;;;;5015673;28;19926;-66
2022/03/14 15:51:41;;;;;;;;;;;;;;;;;;5019890;28;19917;-62
2022/03/14 15:54:06;;;;;;;;;;;;;;;;;;5013307;28;19928;-62
2022/03/14 15:56:32;;;;;;;;;;;;;;;;;;5017939;28;19926;-60
2022/03/14 15:58:57;;;;;;;;;;;;;;;;;;5018331;28;20018;-61
2022/03/14 16:01:22;;;;;;;;;;;;;;;;;;5018154;28;19921;-64
2022/03/14 16:03:48;;;;;;;;;;;;;;;;;;5012033;28;20100;-61
2022/03/14 16:06:13;;;;;;;;;;;;;;;;;;5018616;28;20385;-61
2022/03/14 16:08:38;;;;;;;;;;;;;;;;;;5018824;28;20004;-61
2022/03/14 16:11:03;;;;;;;;;;;;;;;;;;5019426;28;20464;-61
2022/03/14 16:13:31;;;;;;;;;;;;;;;;;;5017262;28;19917;-50
2022/03/14 16:16:53;;;;;;;20.02;7.78;;;;;;;;;;5157540;27;20474;-46
2022/03/14 16:19:18;;;;;;;25.33;8.82;;;;;;;;;;5154689;27;20175;-44
2022/03/14 16:21:44;;;;;;;15.15;8.63;;;;;;;;;;5153201;27;20454;-49
2022/03/14 16:24:10;;;;;;;21.48;8.23;;;;;;;;;;5154106;27;20046;-43
2022/03/14 16:26:35;;;;;;;19.42;6.65;;;;;;;;;;5155469;27;20054;-44
2022/03/14 16:29:01;;;;;;;26.02;8.82;;;;;;;;;;5155627;27;20083;-45
2022/03/14 16:31:26;;;;;;;20.60;8.35;;;;;;;;;;5156327;27;20440;-42